Terminal Aerodrome Forecast
Issued by NWS Charleston, SC

Home | Current Version | Previous Version | Text Only | Print | Product List | Glossary On
Versions: 1 2 3 4 5 6 7 8 9 10 11 12 13 14 15 16 17 18 19 20 21 22 23 24
000
FTUS42 KCHS 301135
TAFSAV
TAF
KSAV 301135Z 3012/3112 30008KT P6SM VCSH SCT008 BKN045 OVC100
     FM301900 32009KT P6SM SCT025 BKN040
     FM310000 VRB03KT P6SM FEW035 SCT150=

USA.gov is the U.S. government's official web portal to all federal, state and local government web resources and services.